EIDWENRY

Guest
Details From EIDW - Dublin
To ENRY - Rygge
Flight Number -
Tags Generated
Created
Modified
Stats Distance 666 nm / 1,234 km
Max Altitude 0 ft / 0 m
Waypoints 4
Social Downloads 1
Likes 0
Share VATSIM

Download

Looking for another format? Having issues loading an existing format? Contact us
Advertisement - Login to hide

Notes

Generated

Route

EIDW GOMOT DA ENRY

ID Type Via Altitude Latitude Longitude Leg Dist Tot Dist Heading (true) Name
O EIDW APT - 0 ft / 0 m 53.43655˚ -6.26227˚ - 0 nm - -
GOMOT FIX - 0 ft / 0 m 55.91944˚ -0.54417˚ 248 nm 248 nm 51° / 55° -
DA NDB - 0 ft / 0 m 59.26193˚ 10.25704˚ 400 nm 648 nm 56° / 65° -
O ENRY APT - 0 ft / 0 m 59.38374˚ 10.76625˚ 17 nm 666 nm 65° / 65° -

Altitude Profile

Advertisement - Login to hide

Weather


0- 5 10 15 20 25 30 35+ Temperature / ° C

Clouds and Precipitation
Forecast for 2018-05-20 18:00 UTC. Updated an hour ago

Ground ~20,000 ft ~40,000 ft Winds

EIDW

Details ICAO EIDW (DUB)
Name Dublin
Region Ireland
Timezone Europe/Dublin (UTC+1.0)
Stats Elevation 242 ft / 74 m (AMSL)
Location 53.428264° -6.259550°
Runways 3
Magnetic Variation 2.952° W

METAR

EIDW 201600Z 15008KT 130V190 9999 FEW035 SCT050 BKN120 16/09 Q1017 NOSIG

Decode

TAF

TAF EIDW 201100Z 2012/2112 15010KT 9999 SCT030 BKN050 BECMG 2019/2022 16005KT TEMPO 2019/2106 3000 -RA BR SCT005 BKN010 BECMG 2103/2105 VRB03KT

Decode

Departure Runways

ID Width Length Bearing (true) Bearing (mag) Surface Threshold Offset Overrun Length
10 148 ft / 45 m 8,625 ft / 2,629 m 95.25° 98.20° Concrete 0 ft / 0 m 0 ft / 0 m
11 200 ft / 61 m 4,380 ft / 1,335 m 105.01° 107.96° Asphalt 279 ft / 85 m 0 ft / 0 m
16 200 ft / 61 m 6,791 ft / 2,070 m 156.64° 159.59° Asphalt 0 ft / 0 m 0 ft / 0 m
28 148 ft / 45 m 8,625 ft / 2,629 m 275.28° 278.23° Concrete 0 ft / 0 m 0 ft / 0 m
29 200 ft / 61 m 4,380 ft / 1,335 m 285.02° 287.97° Asphalt 0 ft / 0 m 0 ft / 0 m
34 200 ft / 61 m 6,791 ft / 2,070 m 336.65° 339.60° Asphalt 0 ft / 0 m 0 ft / 0 m

ENRY

Details ICAO ENRY (RYG)
Name RYGGE
Region Norway
Timezone Europe/Oslo (UTC+2.0)
Stats Elevation 174 ft / 53 m (AMSL)
Location 59.378793° 10.785426°
Runways 1
Magnetic Variation 3.290° E

METAR

ENRY 201550Z AUTO 20014KT 170V230 9999NDV NCD 17/08 Q1026

Decode

TAF

TAF TAF ENRY 201100Z 2012/2112 20015KT CAVOK TEMPO 2012/2017 21015G25KT BECMG 2018/2020 18005KT

Decode

Destination Runways

ID Width Length Bearing (true) Bearing (mag) Surface Threshold Offset Overrun Length
12 148 ft / 45 m 7,990 ft / 2,435 m 116.83° 113.54° Asphalt 0 ft / 0 m 898 ft / 274 m
30 148 ft / 45 m 7,990 ft / 2,435 m 296.86° 293.57° Asphalt 0 ft / 0 m 898 ft / 274 m

Approach Navaids

Runway Type Ident Frequency Range Bearing (true) Bearing (mag) Slope Elevation
30 Localiser RY 109.10 MHz 18 nm / 33 km 296.79° 293.50° - 173 ft / 53 m (AMSL)
30 Glidescope RY 109.10 MHz 10 nm / 19 km 296.84° 293.55° 3.10° 217 ft / 66 m (AMSL)
30 DME RY 109.10 MHz 18 nm / 33 km - - - 174 ft / 53 m (AMSL)

Popular Alternatives